sensor_id;sensor_type;location;lat;lon;timestamp;temperature;humidity
360;DHT22;168;48.872;9.226;2022-12-18T00:01:58;-5.90;99.90
360;DHT22;168;48.872;9.226;2022-12-18T00:04:26;-5.90;99.90
360;DHT22;168;48.872;9.226;2022-12-18T00:06:56;-6.00;99.90
360;DHT22;168;48.872;9.226;2022-12-18T00:09:28;-6.00;99.90
360;DHT22;168;48.872;9.226;2022-12-18T00:11:56;-6.10;99.90
360;DHT22;168;48.872;9.226;2022-12-18T00:14:30;-6.10;99.90
360;DHT22;168;48.872;9.226;2022-12-18T00:17:03;-6.10;99.90
360;DHT22;168;48.872;9.226;2022-12-18T00:19:33;-6.10;99.90
360;DHT22;168;48.872;9.226;2022-12-18T00:22:00;-6.10;99.90
360;DHT22;168;48.872;9.226;2022-12-18T00:24:30;-6.10;99.90
360;DHT22;168;48.872;9.226;2022-12-18T00:26:58;-6.10;99.90
360;DHT22;168;48.872;9.226;2022-12-18T00:29:34;-6.10;99.90
360;DHT22;168;48.872;9.226;2022-12-18T00:32:05;-6.10;99.90
360;DHT22;168;48.872;9.226;2022-12-18T00:34:33;-6.10;99.90
360;DHT22;168;48.872;9.226;2022-12-18T00:37:00;-6.10;99.90
360;DHT22;168;48.872;9.226;2022-12-18T00:39:28;-6.10;99.90
360;DHT22;168;48.872;9.226;2022-12-18T00:41:55;-6.10;99.90
360;DHT22;168;48.872;9.226;2022-12-18T00:44:42;-6.10;99.90
360;DHT22;168;48.872;9.226;2022-12-18T00:47:09;-6.10;99.90
360;DHT22;168;48.872;9.226;2022-12-18T00:49:36;-6.10;99.90
360;DHT22;168;48.872;9.226;2022-12-18T00:52:04;-6.10;99.90
360;DHT22;168;48.872;9.226;2022-12-18T00:54:33;-6.20;99.90
360;DHT22;168;48.872;9.226;2022-12-18T00:57:19;-6.20;99.90
360;DHT22;168;48.872;9.226;2022-12-18T00:59:48;-6.30;99.90
360;DHT22;168;48.872;9.226;2022-12-18T01:02:21;-6.30;99.90
360;DHT22;168;48.872;9.226;2022-12-18T01:05:02;-6.40;99.90
360;DHT22;168;48.872;9.226;2022-12-18T01:07:32;-6.40;99.90
360;DHT22;168;48.872;9.226;2022-12-18T01:10:07;-6.40;99.90
360;DHT22;168;48.872;9.226;2022-12-18T01:12:37;-6.50;99.90
360;DHT22;168;48.872;9.226;2022-12-18T01:15:12;-6.50;99.90
360;DHT22;168;48.872;9.226;2022-12-18T01:17:51;-6.60;99.90
360;DHT22;168;48.872;9.226;2022-12-18T01:20:20;-6.60;99.90
360;DHT22;168;48.872;9.226;2022-12-18T01:22:48;-6.60;99.90
360;DHT22;168;48.872;9.226;2022-12-18T01:25:28;-6.60;99.90
360;DHT22;168;48.872;9.226;2022-12-18T01:27:56;-6.60;99.90
360;DHT22;168;48.872;9.226;2022-12-18T01:30:26;-6.60;99.90
360;DHT22;168;48.872;9.226;2022-12-18T01:32:53;-6.60;99.90
360;DHT22;168;48.872;9.226;2022-12-18T01:35:23;-6.70;99.90
360;DHT22;168;48.872;9.226;2022-12-18T01:37:54;-6.70;99.90
360;DHT22;168;48.872;9.226;2022-12-18T01:40:21;-6.70;99.90
360;DHT22;168;48.872;9.226;2022-12-18T01:42:50;-6.60;99.90
360;DHT22;168;48.872;9.226;2022-12-18T01:45:27;-6.60;99.90
360;DHT22;168;48.872;9.226;2022-12-18T01:47:57;-6.60;99.90
360;DHT22;168;48.872;9.226;2022-12-18T01:50:30;-6.70;99.90
360;DHT22;168;48.872;9.226;2022-12-18T01:53:02;-6.70;99.90
360;DHT22;168;48.872;9.226;2022-12-18T01:55:36;-6.70;99.90
360;DHT22;168;48.872;9.226;2022-12-18T01:58:06;-6.70;99.90
360;DHT22;168;48.872;9.226;2022-12-18T02:00:35;-6.70;99.90
360;DHT22;168;48.872;9.226;2022-12-18T02:03:03;-6.70;99.90
360;DHT22;168;48.872;9.226;2022-12-18T02:05:40;-6.70;99.90
360;DHT22;168;48.872;9.226;2022-12-18T02:08:14;-6.60;99.90
360;DHT22;168;48.872;9.226;2022-12-18T02:10:48;-6.60;99.90
360;DHT22;168;48.872;9.226;2022-12-18T02:13:26;-6.60;99.90
360;DHT22;168;48.872;9.226;2022-12-18T02:16:02;-6.70;99.90
360;DHT22;168;48.872;9.226;2022-12-18T02:18:51;-6.70;99.90
360;DHT22;168;48.872;9.226;2022-12-18T02:21:28;-6.70;99.90
360;DHT22;168;48.872;9.226;2022-12-18T02:24:11;-6.60;99.90
360;DHT22;168;48.872;9.226;2022-12-18T02:26:44;-6.60;99.90
360;DHT22;168;48.872;9.226;2022-12-18T02:29:15;-6.60;99.90
360;DHT22;168;48.872;9.226;2022-12-18T02:31:47;-6.60;99.90
360;DHT22;168;48.872;9.226;2022-12-18T02:34:17;-6.60;99.90
360;DHT22;168;48.872;9.226;2022-12-18T02:36:46;-6.60;99.90
360;DHT22;168;48.872;9.226;2022-12-18T02:39:16;-6.50;99.90
360;DHT22;168;48.872;9.226;2022-12-18T02:41:46;-6.50;99.90
360;DHT22;168;48.872;9.226;2022-12-18T02:44:15;-6.50;99.90
360;DHT22;168;48.872;9.226;2022-12-18T02:46:43;-6.60;99.90
360;DHT22;168;48.872;9.226;2022-12-18T02:49:21;-6.60;99.90
360;DHT22;168;48.872;9.226;2022-12-18T02:51:52;-6.60;99.90
360;DHT22;168;48.872;9.226;2022-12-18T02:54:44;-6.50;99.90
360;DHT22;168;48.872;9.226;2022-12-18T02:57:20;-6.40;99.90
360;DHT22;168;48.872;9.226;2022-12-18T02:59:56;-6.40;99.90
360;DHT22;168;48.872;9.226;2022-12-18T03:02:31;-6.40;99.90
360;DHT22;168;48.872;9.226;2022-12-18T03:05:07;-6.40;99.90
360;DHT22;168;48.872;9.226;2022-12-18T03:07:42;-6.40;99.90
360;DHT22;168;48.872;9.226;2022-12-18T03:10:14;-6.40;99.90
360;DHT22;168;48.872;9.226;2022-12-18T03:12:47;-6.40;99.90
360;DHT22;168;48.872;9.226;2022-12-18T03:15:19;-6.40;99.90
360;DHT22;168;48.872;9.226;2022-12-18T03:17:52;-6.30;99.90
360;DHT22;168;48.872;9.226;2022-12-18T03:20:23;-6.20;99.90
360;DHT22;168;48.872;9.226;2022-12-18T03:22:56;-6.30;99.50
360;DHT22;168;48.872;9.226;2022-12-18T03:25:25;-6.40;99.60
360;DHT22;168;48.872;9.226;2022-12-18T03:27:58;-6.40;99.60
360;DHT22;168;48.872;9.226;2022-12-18T03:30:28;-6.40;99.60
360;DHT22;168;48.872;9.226;2022-12-18T03:33:00;-6.40;99.60
360;DHT22;168;48.872;9.226;2022-12-18T03:35:33;-6.30;99.50
360;DHT22;168;48.872;9.226;2022-12-18T03:38:02;-6.30;99.20
360;DHT22;168;48.872;9.226;2022-12-18T03:40:36;-6.30;99.10
360;DHT22;168;48.872;9.226;2022-12-18T03:43:11;-6.30;99.00
360;DHT22;168;48.872;9.226;2022-12-18T03:45:48;-6.30;98.80
360;DHT22;168;48.872;9.226;2022-12-18T03:48:20;-6.40;98.60
360;DHT22;168;48.872;9.226;2022-12-18T03:50:56;-6.40;98.40
360;DHT22;168;48.872;9.226;2022-12-18T03:53:32;-6.40;98.30
360;DHT22;168;48.872;9.226;2022-12-18T03:56:02;-6.50;98.40
360;DHT22;168;48.872;9.226;2022-12-18T03:58:34;-6.50;98.50
360;DHT22;168;48.872;9.226;2022-12-18T04:01:05;-6.50;98.70
360;DHT22;168;48.872;9.226;2022-12-18T04:03:34;-6.50;98.80
360;DHT22;168;48.872;9.226;2022-12-18T04:06:03;-6.50;98.60
360;DHT22;168;48.872;9.226;2022-12-18T04:08:32;-6.50;98.40
360;DHT22;168;48.872;9.226;2022-12-18T04:11:01;-6.40;98.20
360;DHT22;168;48.872;9.226;2022-12-18T04:13:33;-6.50;97.90
360;DHT22;168;48.872;9.226;2022-12-18T04:16:01;-6.50;97.70
360;DHT22;168;48.872;9.226;2022-12-18T04:18:28;-6.50;97.50
360;DHT22;168;48.872;9.226;2022-12-18T04:20:56;-6.60;97.60
360;DHT22;168;48.872;9.226;2022-12-18T04:23:23;-6.70;97.70
360;DHT22;168;48.872;9.226;2022-12-18T04:25:50;-6.70;98.00
360;DHT22;168;48.872;9.226;2022-12-18T04:28:18;-6.60;98.00
360;DHT22;168;48.872;9.226;2022-12-18T04:30:47;-6.70;98.00
360;DHT22;168;48.872;9.226;2022-12-18T04:33:15;-6.70;98.40
360;DHT22;168;48.872;9.226;2022-12-18T04:35:42;-6.70;98.60
360;DHT22;168;48.872;9.226;2022-12-18T04:38:10;-6.70;98.80
360;DHT22;168;48.872;9.226;2022-12-18T04:40:38;-6.70;98.90
360;DHT22;168;48.872;9.226;2022-12-18T04:43:05;-6.70;99.10
360;DHT22;168;48.872;9.226;2022-12-18T04:45:33;-6.60;98.90
360;DHT22;168;48.872;9.226;2022-12-18T04:48:03;-6.60;98.80
360;DHT22;168;48.872;9.226;2022-12-18T04:50:31;-6.70;98.90
360;DHT22;168;48.872;9.226;2022-12-18T04:52:59;-6.70;99.20
360;DHT22;168;48.872;9.226;2022-12-18T04:55:27;-6.70;99.40
360;DHT22;168;48.872;9.226;2022-12-18T04:57:54;-6.70;99.30
360;DHT22;168;48.872;9.226;2022-12-18T05:00:22;-6.70;99.30
360;DHT22;168;48.872;9.226;2022-12-18T05:02:50;-6.80;99.30
360;DHT22;168;48.872;9.226;2022-12-18T05:05:19;-6.80;99.30
360;DHT22;168;48.872;9.226;2022-12-18T05:07:47;-6.80;98.90
360;DHT22;168;48.872;9.226;2022-12-18T05:10:14;-6.80;98.80
360;DHT22;168;48.872;9.226;2022-12-18T05:12:42;-6.90;98.80
360;DHT22;168;48.872;9.226;2022-12-18T05:15:23;-6.80;98.70
360;DHT22;168;48.872;9.226;2022-12-18T05:17:50;-6.80;98.50
360;DHT22;168;48.872;9.226;2022-12-18T05:20:19;-6.80;98.40
360;DHT22;168;48.872;9.226;2022-12-18T05:22:46;-6.80;98.20
360;DHT22;168;48.872;9.226;2022-12-18T05:25:14;-6.90;98.10
360;DHT22;168;48.872;9.226;2022-12-18T05:27:42;-6.90;98.00
360;DHT22;168;48.872;9.226;2022-12-18T05:30:10;-6.90;98.30
360;DHT22;168;48.872;9.226;2022-12-18T05:32:38;-6.90;98.20
360;DHT22;168;48.872;9.226;2022-12-18T05:35:07;-6.90;98.20
360;DHT22;168;48.872;9.226;2022-12-18T05:37:37;-6.90;98.20
360;DHT22;168;48.872;9.226;2022-12-18T05:40:05;-7.00;98.10
360;DHT22;168;48.872;9.226;2022-12-18T05:42:33;-6.90;98.30
360;DHT22;168;48.872;9.226;2022-12-18T05:45:01;-7.00;98.30
360;DHT22;168;48.872;9.226;2022-12-18T05:47:29;-7.00;98.50
360;DHT22;168;48.872;9.226;2022-12-18T05:49:56;-7.00;98.80
360;DHT22;168;48.872;9.226;2022-12-18T05:52:24;-7.10;98.90
360;DHT22;168;48.872;9.226;2022-12-18T05:54:53;-7.10;99.20
360;DHT22;168;48.872;9.226;2022-12-18T05:57:20;-7.10;99.40
360;DHT22;168;48.872;9.226;2022-12-18T05:59:47;-7.10;99.40
360;DHT22;168;48.872;9.226;2022-12-18T06:02:15;-7.10;99.60
360;DHT22;168;48.872;9.226;2022-12-18T06:04:43;-7.10;99.60
360;DHT22;168;48.872;9.226;2022-12-18T06:07:10;-7.10;99.60
360;DHT22;168;48.872;9.226;2022-12-18T06:09:38;-7.10;99.50
360;DHT22;168;48.872;9.226;2022-12-18T06:12:07;-7.10;99.60
360;DHT22;168;48.872;9.226;2022-12-18T06:14:34;-7.20;99.70
360;DHT22;168;48.872;9.226;2022-12-18T06:17:02;-7.10;99.80
360;DHT22;168;48.872;9.226;2022-12-18T06:19:30;-7.10;99.70
360;DHT22;168;48.872;9.226;2022-12-18T06:21:57;-7.10;99.70
360;DHT22;168;48.872;9.226;2022-12-18T06:24:24;-7.10;99.80
360;DHT22;168;48.872;9.226;2022-12-18T06:26:52;-7.20;99.80
360;DHT22;168;48.872;9.226;2022-12-18T06:29:21;-7.10;99.90
360;DHT22;168;48.872;9.226;2022-12-18T06:31:48;-7.20;99.80
360;DHT22;168;48.872;9.226;2022-12-18T06:34:16;-7.20;99.90
360;DHT22;168;48.872;9.226;2022-12-18T06:36:43;-7.20;99.80
360;DHT22;168;48.872;9.226;2022-12-18T06:39:11;-7.20;99.60
360;DHT22;168;48.872;9.226;2022-12-18T06:41:38;-7.20;99.50
360;DHT22;168;48.872;9.226;2022-12-18T06:44:06;-7.20;99.30
360;DHT22;168;48.872;9.226;2022-12-18T06:46:35;-7.30;99.30
360;DHT22;168;48.872;9.226;2022-12-18T06:49:04;-7.30;99.50
360;DHT22;168;48.872;9.226;2022-12-18T06:51:31;-7.20;99.60
360;DHT22;168;48.872;9.226;2022-12-18T06:53:59;-7.20;99.30
360;DHT22;168;48.872;9.226;2022-12-18T06:56:26;-7.20;99.10
360;DHT22;168;48.872;9.226;2022-12-18T06:58:54;-7.30;99.10
360;DHT22;168;48.872;9.226;2022-12-18T07:01:22;-7.30;99.30
360;DHT22;168;48.872;9.226;2022-12-18T07:03:54;-7.30;99.30
360;DHT22;168;48.872;9.226;2022-12-18T07:06:24;-7.40;99.50
360;DHT22;168;48.872;9.226;2022-12-18T07:08:53;-7.40;99.50
360;DHT22;168;48.872;9.226;2022-12-18T07:11:21;-7.40;99.60
360;DHT22;168;48.872;9.226;2022-12-18T07:13:49;-7.40;99.90
360;DHT22;168;48.872;9.226;2022-12-18T07:16:18;-7.30;99.80
360;DHT22;168;48.872;9.226;2022-12-18T07:18:46;-7.30;99.60
360;DHT22;168;48.872;9.226;2022-12-18T07:21:16;-7.20;99.20
360;DHT22;168;48.872;9.226;2022-12-18T07:23:44;-7.20;98.90
360;DHT22;168;48.872;9.226;2022-12-18T07:26:16;-7.20;98.80
360;DHT22;168;48.872;9.226;2022-12-18T07:28:44;-7.20;98.70
360;DHT22;168;48.872;9.226;2022-12-18T07:31:13;-7.20;98.60
360;DHT22;168;48.872;9.226;2022-12-18T07:33:41;-7.30;98.70
360;DHT22;168;48.872;9.226;2022-12-18T07:36:09;-7.20;98.80
360;DHT22;168;48.872;9.226;2022-12-18T07:38:39;-7.10;99.00
360;DHT22;168;48.872;9.226;2022-12-18T07:41:08;-7.20;99.00
360;DHT22;168;48.872;9.226;2022-12-18T07:43:38;-7.20;99.20
360;DHT22;168;48.872;9.226;2022-12-18T07:46:06;-7.20;99.40
360;DHT22;168;48.872;9.226;2022-12-18T07:48:34;-7.20;99.30
360;DHT22;168;48.872;9.226;2022-12-18T07:51:04;-7.10;99.00
360;DHT22;168;48.872;9.226;2022-12-18T07:53:32;-7.10;98.90
360;DHT22;168;48.872;9.226;2022-12-18T07:56:03;-7.10;98.90
360;DHT22;168;48.872;9.226;2022-12-18T07:58:31;-7.10;98.90
360;DHT22;168;48.872;9.226;2022-12-18T08:01:03;-7.00;99.00
360;DHT22;168;48.872;9.226;2022-12-18T08:03:31;-6.90;99.00
360;DHT22;168;48.872;9.226;2022-12-18T08:06:00;-6.80;98.70
360;DHT22;168;48.872;9.226;2022-12-18T08:08:27;-6.70;98.50
360;DHT22;168;48.872;9.226;2022-12-18T08:10:58;-6.70;98.40
360;DHT22;168;48.872;9.226;2022-12-18T08:13:27;-6.60;98.20
360;DHT22;168;48.872;9.226;2022-12-18T08:16:01;-6.50;97.80
360;DHT22;168;48.872;9.226;2022-12-18T08:18:29;-6.50;97.60
360;DHT22;168;48.872;9.226;2022-12-18T08:20:56;-6.50;97.60
360;DHT22;168;48.872;9.226;2022-12-18T08:23:24;-6.30;97.50
360;DHT22;168;48.872;9.226;2022-12-18T08:25:51;-6.30;97.30
360;DHT22;168;48.872;9.226;2022-12-18T08:28:18;-6.30;97.50
360;DHT22;168;48.872;9.226;2022-12-18T08:30:51;-6.20;97.60
360;DHT22;168;48.872;9.226;2022-12-18T08:33:19;-6.20;97.80
360;DHT22;168;48.872;9.226;2022-12-18T08:35:46;-6.10;97.90
360;DHT22;168;48.872;9.226;2022-12-18T08:38:13;-6.10;98.30
360;DHT22;168;48.872;9.226;2022-12-18T08:40:41;-5.90;98.80
360;DHT22;168;48.872;9.226;2022-12-18T08:43:09;-5.70;99.10
360;DHT22;168;48.872;9.226;2022-12-18T08:45:56;-5.40;98.90
360;DHT22;168;48.872;9.226;2022-12-18T08:48:23;-5.10;98.50
360;DHT22;168;48.872;9.226;2022-12-18T08:50:54;-4.90;98.20
360;DHT22;168;48.872;9.226;2022-12-18T08:53:25;-4.70;97.60
360;DHT22;168;48.872;9.226;2022-12-18T08:55:53;-4.60;96.40
360;DHT22;168;48.872;9.226;2022-12-18T08:58:20;-4.50;96.10
360;DHT22;168;48.872;9.226;2022-12-18T09:00:48;-4.40;95.90
360;DHT22;168;48.872;9.226;2022-12-18T09:03:18;-4.40;95.90
360;DHT22;168;48.872;9.226;2022-12-18T09:05:48;-4.40;96.10
360;DHT22;168;48.872;9.226;2022-12-18T09:08:15;-4.30;96.20
360;DHT22;168;48.872;9.226;2022-12-18T09:10:44;-4.20;96.20
360;DHT22;168;48.872;9.226;2022-12-18T09:13:12;-4.10;95.80
360;DHT22;168;48.872;9.226;2022-12-18T09:15:41;-4.00;95.60
360;DHT22;168;48.872;9.226;2022-12-18T09:18:09;-4.00;95.00
360;DHT22;168;48.872;9.226;2022-12-18T09:20:38;-3.90;95.10
360;DHT22;168;48.872;9.226;2022-12-18T09:23:07;-3.90;95.40
360;DHT22;168;48.872;9.226;2022-12-18T09:25:35;-3.80;95.00
360;DHT22;168;48.872;9.226;2022-12-18T09:28:06;-3.70;95.10
360;DHT22;168;48.872;9.226;2022-12-18T09:30:34;-3.60;95.00
360;DHT22;168;48.872;9.226;2022-12-18T09:33:03;-3.50;95.60
360;DHT22;168;48.872;9.226;2022-12-18T09:35:31;-3.40;95.70
360;DHT22;168;48.872;9.226;2022-12-18T09:38:02;-3.30;95.70
360;DHT22;168;48.872;9.226;2022-12-18T09:40:41;-3.20;94.90
360;DHT22;168;48.872;9.226;2022-12-18T09:43:17;-3.10;94.30
360;DHT22;168;48.872;9.226;2022-12-18T09:45:52;-3.00;94.00
360;DHT22;168;48.872;9.226;2022-12-18T09:48:25;-2.90;93.50
360;DHT22;168;48.872;9.226;2022-12-18T09:50:58;-2.80;93.80
360;DHT22;168;48.872;9.226;2022-12-18T09:53:53;-2.80;94.00
360;DHT22;168;48.872;9.226;2022-12-18T09:56:42;-2.70;93.70
360;DHT22;168;48.872;9.226;2022-12-18T09:59:31;-2.60;93.90
360;DHT22;168;48.872;9.226;2022-12-18T10:02:14;-2.50;94.20
360;DHT22;168;48.872;9.226;2022-12-18T10:04:42;-2.40;94.40
360;DHT22;168;48.872;9.226;2022-12-18T10:07:16;-2.30;94.30
360;DHT22;168;48.872;9.226;2022-12-18T10:09:55;-2.20;93.90
360;DHT22;168;48.872;9.226;2022-12-18T10:12:32;-2.10;93.80
360;DHT22;168;48.872;9.226;2022-12-18T10:15:10;-2.00;92.70
360;DHT22;168;48.872;9.226;2022-12-18T10:17:48;-1.90;92.70
360;DHT22;168;48.872;9.226;2022-12-18T10:20:27;-1.90;92.90
360;DHT22;168;48.872;9.226;2022-12-18T10:23:01;-1.80;93.00
360;DHT22;168;48.872;9.226;2022-12-18T10:25:36;-1.80;93.60
360;DHT22;168;48.872;9.226;2022-12-18T10:28:13;-1.80;93.30
360;DHT22;168;48.872;9.226;2022-12-18T10:30:45;-1.80;93.90
360;DHT22;168;48.872;9.226;2022-12-18T10:33:37;-1.70;93.70
360;DHT22;168;48.872;9.226;2022-12-18T10:36:07;-1.60;94.00
360;DHT22;168;48.872;9.226;2022-12-18T10:38:36;-1.60;94.00
360;DHT22;168;48.872;9.226;2022-12-18T10:41:06;-1.50;94.50
360;DHT22;168;48.872;9.226;2022-12-18T10:43:39;-1.40;94.80
360;DHT22;168;48.872;9.226;2022-12-18T10:46:14;-1.30;95.10
360;DHT22;168;48.872;9.226;2022-12-18T10:48:53;-1.20;95.50
360;DHT22;168;48.872;9.226;2022-12-18T10:51:24;-1.10;94.60
360;DHT22;168;48.872;9.226;2022-12-18T10:53:54;-1.00;94.00
360;DHT22;168;48.872;9.226;2022-12-18T10:56:26;-0.90;93.80
360;DHT22;168;48.872;9.226;2022-12-18T10:58:59;-0.90;93.00
360;DHT22;168;48.872;9.226;2022-12-18T11:01:27;-0.80;93.60
360;DHT22;168;48.872;9.226;2022-12-18T11:04:01;-0.70;92.70
360;DHT22;168;48.872;9.226;2022-12-18T11:06:29;-0.50;93.30
360;DHT22;168;48.872;9.226;2022-12-18T11:09:01;-0.40;94.30
360;DHT22;168;48.872;9.226;2022-12-18T11:11:31;-0.30;94.90
360;DHT22;168;48.872;9.226;2022-12-18T11:14:02;-0.10;95.30
360;DHT22;168;48.872;9.226;2022-12-18T11:16:34;0.00;95.80
360;DHT22;168;48.872;9.226;2022-12-18T11:19:20;0.20;95.90
360;DHT22;168;48.872;9.226;2022-12-18T11:21:48;0.30;96.00
360;DHT22;168;48.872;9.226;2022-12-18T11:24:20;0.50;95.60
360;DHT22;168;48.872;9.226;2022-12-18T11:26:50;0.60;93.80
360;DHT22;168;48.872;9.226;2022-12-18T11:35:08;0.80;92.50
360;DHT22;168;48.872;9.226;2022-12-18T11:37:42;0.90;91.80
360;DHT22;168;48.872;9.226;2022-12-18T11:40:14;0.90;91.10
360;DHT22;168;48.872;9.226;2022-12-18T11:42:50;1.00;91.10
360;DHT22;168;48.872;9.226;2022-12-18T11:45:33;1.00;90.80
360;DHT22;168;48.872;9.226;2022-12-18T11:48:12;1.10;88.80
360;DHT22;168;48.872;9.226;2022-12-18T11:50:46;1.10;89.70
360;DHT22;168;48.872;9.226;2022-12-18T11:53:16;1.20;89.80
360;DHT22;168;48.872;9.226;2022-12-18T11:55:51;1.20;90.10
360;DHT22;168;48.872;9.226;2022-12-18T11:58:34;1.30;89.70
360;DHT22;168;48.872;9.226;2022-12-18T12:01:13;1.40;89.30
360;DHT22;168;48.872;9.226;2022-12-18T12:04:02;1.40;89.10
360;DHT22;168;48.872;9.226;2022-12-18T12:06:53;1.40;88.50
360;DHT22;168;48.872;9.226;2022-12-18T12:13:40;1.60;87.70
360;DHT22;168;48.872;9.226;2022-12-18T12:19:41;1.60;88.60
360;DHT22;168;48.872;9.226;2022-12-18T12:22:21;1.70;89.20
360;DHT22;168;48.872;9.226;2022-12-18T12:25:02;1.80;87.60
360;DHT22;168;48.872;9.226;2022-12-18T12:27:41;1.80;88.40
360;DHT22;168;48.872;9.226;2022-12-18T12:30:16;1.90;88.80
360;DHT22;168;48.872;9.226;2022-12-18T12:32:57;1.90;89.30
360;DHT22;168;48.872;9.226;2022-12-18T12:35:40;1.90;89.40
360;DHT22;168;48.872;9.226;2022-12-18T12:38:13;2.00;89.70
360;DHT22;168;48.872;9.226;2022-12-18T12:40:46;2.00;89.10
360;DHT22;168;48.872;9.226;2022-12-18T12:43:23;1.90;86.80
360;DHT22;168;48.872;9.226;2022-12-18T12:45:55;1.90;86.40
360;DHT22;168;48.872;9.226;2022-12-18T12:48:38;2.00;86.30
360;DHT22;168;48.872;9.226;2022-12-18T12:51:16;1.90;85.50
360;DHT22;168;48.872;9.226;2022-12-18T12:53:45;2.00;85.20
360;DHT22;168;48.872;9.226;2022-12-18T12:56:15;1.90;85.80
360;DHT22;168;48.872;9.226;2022-12-18T12:58:49;2.00;86.00
360;DHT22;168;48.872;9.226;2022-12-18T13:01:27;2.00;85.50
360;DHT22;168;48.872;9.226;2022-12-18T13:04:03;2.00;86.30
360;DHT22;168;48.872;9.226;2022-12-18T13:06:42;2.00;85.60
360;DHT22;168;48.872;9.226;2022-12-18T13:09:11;1.90;85.60
360;DHT22;168;48.872;9.226;2022-12-18T13:11:40;1.90;85.80
360;DHT22;168;48.872;9.226;2022-12-18T13:14:31;1.90;85.80
360;DHT22;168;48.872;9.226;2022-12-18T13:17:24;1.90;85.60
360;DHT22;168;48.872;9.226;2022-12-18T13:20:13;1.80;85.50
360;DHT22;168;48.872;9.226;2022-12-18T13:22:45;1.80;85.60
360;DHT22;168;48.872;9.226;2022-12-18T13:25:35;1.80;84.70
360;DHT22;168;48.872;9.226;2022-12-18T13:28:15;1.70;85.90
360;DHT22;168;48.872;9.226;2022-12-18T13:30:48;1.70;85.60
360;DHT22;168;48.872;9.226;2022-12-18T13:33:49;1.60;86.50
360;DHT22;168;48.872;9.226;2022-12-18T13:36:31;1.70;87.30
360;DHT22;168;48.872;9.226;2022-12-18T13:39:22;1.80;87.00
360;DHT22;168;48.872;9.226;2022-12-18T13:41:51;1.80;86.90
360;DHT22;168;48.872;9.226;2022-12-18T13:44:28;1.80;87.50
360;DHT22;168;48.872;9.226;2022-12-18T13:46:58;1.80;86.80
360;DHT22;168;48.872;9.226;2022-12-18T13:49:31;1.90;86.40
360;DHT22;168;48.872;9.226;2022-12-18T13:52:03;2.00;86.10
360;DHT22;168;48.872;9.226;2022-12-18T13:54:47;2.00;86.80
360;DHT22;168;48.872;9.226;2022-12-18T13:57:27;2.10;86.80
360;DHT22;168;48.872;9.226;2022-12-18T13:59:55;2.10;87.10
360;DHT22;168;48.872;9.226;2022-12-18T14:02:24;2.20;86.10
360;DHT22;168;48.872;9.226;2022-12-18T14:04:53;2.20;86.40
360;DHT22;168;48.872;9.226;2022-12-18T14:07:23;2.20;85.30
360;DHT22;168;48.872;9.226;2022-12-18T14:09:54;2.10;86.00
360;DHT22;168;48.872;9.226;2022-12-18T14:12:25;2.10;86.60
360;DHT22;168;48.872;9.226;2022-12-18T14:15:20;2.10;86.20
360;DHT22;168;48.872;9.226;2022-12-18T14:17:50;2.10;86.00
360;DHT22;168;48.872;9.226;2022-12-18T14:20:18;2.00;86.40
360;DHT22;168;48.872;9.226;2022-12-18T14:22:46;2.00;86.40
360;DHT22;168;48.872;9.226;2022-12-18T14:25:18;2.00;86.60
360;DHT22;168;48.872;9.226;2022-12-18T14:27:49;2.00;86.40
360;DHT22;168;48.872;9.226;2022-12-18T14:30:25;1.90;86.20
360;DHT22;168;48.872;9.226;2022-12-18T14:33:06;1.90;85.80
360;DHT22;168;48.872;9.226;2022-12-18T14:35:43;1.90;85.70
360;DHT22;168;48.872;9.226;2022-12-18T14:38:24;1.90;85.90
360;DHT22;168;48.872;9.226;2022-12-18T14:41:09;1.80;85.80
360;DHT22;168;48.872;9.226;2022-12-18T14:43:56;1.80;86.00
360;DHT22;168;48.872;9.226;2022-12-18T14:46:35;1.70;86.10
360;DHT22;168;48.872;9.226;2022-12-18T14:49:05;1.70;85.80
360;DHT22;168;48.872;9.226;2022-12-18T14:51:48;1.60;86.30
360;DHT22;168;48.872;9.226;2022-12-18T14:54:17;1.40;86.70
360;DHT22;168;48.872;9.226;2022-12-18T14:56:48;1.30;86.70
360;DHT22;168;48.872;9.226;2022-12-18T14:59:18;1.30;87.30
360;DHT22;168;48.872;9.226;2022-12-18T15:01:55;1.20;87.70
360;DHT22;168;48.872;9.226;2022-12-18T15:04:26;1.10;88.00
360;DHT22;168;48.872;9.226;2022-12-18T15:07:12;1.00;88.20
360;DHT22;168;48.872;9.226;2022-12-18T15:09:44;1.00;88.40
360;DHT22;168;48.872;9.226;2022-12-18T15:12:33;0.90;88.70
360;DHT22;168;48.872;9.226;2022-12-18T15:15:02;0.80;88.80
360;DHT22;168;48.872;9.226;2022-12-18T15:17:29;0.70;89.10
360;DHT22;168;48.872;9.226;2022-12-18T15:20:01;0.70;89.00
360;DHT22;168;48.872;9.226;2022-12-18T15:22:30;0.60;89.40
360;DHT22;168;48.872;9.226;2022-12-18T15:24:59;0.50;89.80
360;DHT22;168;48.872;9.226;2022-12-18T15:27:30;0.50;89.90
360;DHT22;168;48.872;9.226;2022-12-18T15:30:02;0.40;90.20
360;DHT22;168;48.872;9.226;2022-12-18T15:32:30;0.30;90.70
360;DHT22;168;48.872;9.226;2022-12-18T15:35:03;0.30;90.90
360;DHT22;168;48.872;9.226;2022-12-18T15:37:35;0.20;91.50
360;DHT22;168;48.872;9.226;2022-12-18T15:40:04;0.10;91.90
360;DHT22;168;48.872;9.226;2022-12-18T15:42:33;0.00;92.30
360;DHT22;168;48.872;9.226;2022-12-18T15:45:17;-0.10;92.50
360;DHT22;168;48.872;9.226;2022-12-18T15:47:45;-0.20;92.90
360;DHT22;168;48.872;9.226;2022-12-18T15:50:13;-0.20;93.30
360;DHT22;168;48.872;9.226;2022-12-18T15:52:43;-0.30;93.60
360;DHT22;168;48.872;9.226;2022-12-18T15:55:12;-0.40;94.00
360;DHT22;168;48.872;9.226;2022-12-18T15:57:59;-0.40;94.20
360;DHT22;168;48.872;9.226;2022-12-18T16:00:27;-0.50;94.30
360;DHT22;168;48.872;9.226;2022-12-18T16:02:54;-0.50;94.30
360;DHT22;168;48.872;9.226;2022-12-18T16:05:23;-0.60;94.50
360;DHT22;168;48.872;9.226;2022-12-18T16:07:51;-0.70;94.70
360;DHT22;168;48.872;9.226;2022-12-18T16:10:18;-0.80;95.30
360;DHT22;168;48.872;9.226;2022-12-18T16:12:46;-0.90;95.80
360;DHT22;168;48.872;9.226;2022-12-18T16:15:21;-1.00;96.20
360;DHT22;168;48.872;9.226;2022-12-18T16:17:50;-1.00;96.40
360;DHT22;168;48.872;9.226;2022-12-18T16:20:19;-1.00;96.70
360;DHT22;168;48.872;9.226;2022-12-18T16:22:49;-1.00;96.90
360;DHT22;168;48.872;9.226;2022-12-18T16:25:23;-1.00;97.00
360;DHT22;168;48.872;9.226;2022-12-18T16:27:51;-1.00;97.00
360;DHT22;168;48.872;9.226;2022-12-18T16:30:27;-1.00;96.90
360;DHT22;168;48.872;9.226;2022-12-18T16:32:55;-0.90;96.90
360;DHT22;168;48.872;9.226;2022-12-18T16:35:23;-0.90;96.80
360;DHT22;168;48.872;9.226;2022-12-18T16:37:55;-1.00;96.90
360;DHT22;168;48.872;9.226;2022-12-18T16:40:22;-0.90;97.00
360;DHT22;168;48.872;9.226;2022-12-18T16:42:49;-0.90;96.80
360;DHT22;168;48.872;9.226;2022-12-18T16:45:17;-1.00;96.90
360;DHT22;168;48.872;9.226;2022-12-18T16:47:48;-1.00;97.10
360;DHT22;168;48.872;9.226;2022-12-18T16:50:17;-1.00;97.20
360;DHT22;168;48.872;9.226;2022-12-18T16:52:44;-1.10;97.20
360;DHT22;168;48.872;9.226;2022-12-18T16:55:12;-1.10;97.40
360;DHT22;168;48.872;9.226;2022-12-18T16:57:39;-1.10;97.50
360;DHT22;168;48.872;9.226;2022-12-18T17:00:08;-1.00;97.60
360;DHT22;168;48.872;9.226;2022-12-18T17:02:35;-1.00;97.50
360;DHT22;168;48.872;9.226;2022-12-18T17:05:05;-1.00;97.50
360;DHT22;168;48.872;9.226;2022-12-18T17:07:32;-1.00;97.50
360;DHT22;168;48.872;9.226;2022-12-18T17:10:00;-1.00;97.50
360;DHT22;168;48.872;9.226;2022-12-18T17:12:29;-1.00;97.80
360;DHT22;168;48.872;9.226;2022-12-18T17:14:56;-1.00;97.70
360;DHT22;168;48.872;9.226;2022-12-18T17:17:24;-0.90;97.40
360;DHT22;168;48.872;9.226;2022-12-18T17:19:51;-0.90;97.30
360;DHT22;168;48.872;9.226;2022-12-18T17:22:21;-0.90;97.00
360;DHT22;168;48.872;9.226;2022-12-18T17:24:49;-0.90;97.20